Bryan's Hourly Summary for Thursday, March 16, 2017
Hour Temp
(f)
RH
(%)
Solar Rad.
(MJ/m2)
Rainfall
(in)
Wind
(mph)
3/16/2017 12:00 AM 57 79 0 0 6.5
3/16/2017 1:00 AM 55 84 0 0 6.72
3/16/2017 2:00 AM 54 87 0 0 5.7
3/16/2017 3:00 AM 54 90 0 0 3.56
3/16/2017 4:00 AM 55 89 0 0 2.46
3/16/2017 5:00 AM 55 89 0 0 3.81
3/16/2017 6:00 AM 55 89 0 0 5.07
3/16/2017 7:00 AM 55 90 0 0 5.26
3/16/2017 8:00 AM 56 90 0.01 0 5.48
3/16/2017 9:00 AM 57 87 0.13 0 6.21
3/16/2017 10:00 AM 58 85 0.39 0 6.42
3/16/2017 11:00 AM 61 81 0.81 0 6.88
3/16/2017 12:00 PM 64 77 1.08 0 6.83
3/16/2017 1:00 PM 66 75 1.31 0 7.01
3/16/2017 2:00 PM 69 69 1.38 0 8.28
3/16/2017 3:00 PM 72 63 1.73 0 9.34
3/16/2017 4:00 PM 74 59 1.41 0 9.03
3/16/2017 5:00 PM 75 56 1.23 0 8.56
3/16/2017 6:00 PM 75 54 0.8 0 9.94
3/16/2017 7:00 PM 75 56 0.43 0 10.36
3/16/2017 8:00 PM 73 59 0.05 0 8.59
3/16/2017 9:00 PM 70 67 0 0 6.94
3/16/2017 10:00 PM 69 73 0 0 7.25
3/16/2017 11:00 PM 67 81 0 0 7.65
Data Summary 63 76 10.76 0.00 6.83